Time;durP1;ratioP1;P1;durP2;ratioP2;P2;SDS_P1;SDS_P2;PMS_P1;PMS_P2;Temp;Humidity;BMP_temperature;BMP_pressure;BME280_temperature;BME280_humidity;BME280_pressure;Samples;Min_cycle;Max_cycle;Signal;HPM_P1;HPM_P2
2022/01/15 00:01:16;;;;;;;1.40;0.40;;;;;;;4.06;60.10;99822.64;117367;1185;22790;-54
2022/01/15 00:03:45;;;;;;;1.90;0.30;;;;;;;4.00;60.00;99821.05;117459;1185;21854;-53
2022/01/15 00:06:13;;;;;;;2.10;0.50;;;;;;;3.97;59.97;99823.98;117431;1176;21861;-64
2022/01/15 00:08:41;;;;;;;1.40;0.40;;;;;;;3.96;60.10;99831.45;117393;1182;21885;-63
2022/01/15 00:11:10;;;;;;;2.20;0.30;;;;;;;3.95;60.11;99834.23;117455;1183;22805;-64
2022/01/15 00:13:41;;;;;;;0.80;0.30;;;;;;;3.95;60.18;99841.34;117412;1183;23981;-54
2022/01/15 00:16:13;;;;;;;1.60;0.30;;;;;;;3.96;60.13;99847.08;117361;1185;22639;-54
2022/01/15 00:19:03;;;;;;;3.20;0.50;;;;;;;3.95;60.05;99844.81;117380;1182;21964;-64
2022/01/15 00:21:31;;;;;;;2.10;0.30;;;;;;;3.94;60.22;99851.75;117415;1183;22869;-54
2022/01/15 00:23:59;;;;;;;0.60;0.20;;;;;;;3.94;60.28;99848.27;117420;1185;21985;-64
2022/01/15 00:26:28;;;;;;;1.40;0.30;;;;;;;3.94;60.04;99854.88;117482;1186;21861;-64
2022/01/15 00:28:56;;;;;;;0.80;0.20;;;;;;;3.95;60.22;99855.39;117349;1185;21857;-54
2022/01/15 00:31:28;;;;;;;1.70;0.40;;;;;;;3.95;60.06;99854.88;117403;1185;22905;-54
2022/01/15 00:33:56;;;;;;;1.70;0.30;;;;;;;3.96;60.12;99854.71;117476;1185;21885;-55
2022/01/15 00:36:24;;;;;;;0.60;0.30;;;;;;;3.96;60.23;99865.66;117438;1185;24165;-65
2022/01/15 00:38:52;;;;;;;2.70;0.80;;;;;;;3.98;60.26;99869.81;117343;1186;24151;-65
2022/01/15 00:41:21;;;;;;;1.20;0.20;;;;;;;3.99;60.23;99863.23;117426;1184;23454;-64
2022/01/15 00:43:49;;;;;;;1.30;0.50;;;;;;;3.99;60.12;99865.64;117390;1185;21856;-55
2022/01/15 00:46:18;;;;;;;1.10;0.30;;;;;;;3.94;60.18;99864.60;117407;1185;23481;-55
2022/01/15 00:48:46;;;;;;;1.70;0.40;;;;;;;3.88;60.02;99861.26;117381;1183;21863;-64
2022/01/15 00:51:14;;;;;;;1.50;0.50;;;;;;;3.81;59.97;99862.94;117405;1185;22812;-64
2022/01/15 00:53:43;;;;;;;1.80;0.80;;;;;;;3.76;59.92;99866.89;117479;1185;23349;-55
2022/01/15 00:56:11;;;;;;;2.30;0.40;;;;;;;3.69;59.97;99869.80;117410;1185;23448;-55
2022/01/15 00:58:39;;;;;;;3.00;0.40;;;;;;;3.67;60.19;99872.91;117548;1185;21886;-55
2022/01/15 01:01:07;;;;;;;3.70;0.60;;;;;;;3.66;60.15;99878.80;117400;1183;23469;-55
2022/01/15 01:03:36;;;;;;;1.40;0.30;;;;;;;3.66;60.24;99885.39;117473;1182;23374;-65
2022/01/15 01:06:04;;;;;;;1.50;0.40;;;;;;;3.63;60.04;99882.77;117466;1186;21880;-64
2022/01/15 01:08:33;;;;;;;0.50;0.30;;;;;;;3.64;59.99;99892.48;117392;1182;22813;-55
2022/01/15 01:11:10;;;;;;;2.50;0.40;;;;;;;3.63;60.05;99887.10;117435;1185;21855;-65
2022/01/15 01:22:51;;;;;;;0.70;0.20;;;;;;;3.67;60.40;99889.04;117391;1180;23448;-54
2022/01/15 01:24:49;;;;;;;1.50;0.20;;;;;;;3.68;60.17;99887.14;117430;1182;21863;-65
2022/01/15 01:27:29;;;;;;;1.50;0.40;;;;;;;3.69;60.09;99885.59;117402;1185;23470;-54
2022/01/15 01:35:05;;;;;;;1.20;0.30;;;;;;;3.70;60.25;99898.45;117427;1185;23576;-55
2022/01/15 01:37:39;;;;;;;3.80;0.70;;;;;;;3.69;60.07;99899.99;117382;1186;21858;-64
2022/01/15 01:40:25;;;;;;;3.40;0.50;;;;;;;3.69;60.31;99902.24;117298;1185;21861;-65
2022/01/15 01:43:14;;;;;;;4.10;0.40;;;;;;;3.67;60.06;99905.01;117389;1185;21927;-65
2022/01/15 01:45:47;;;;;;;0.70;0.40;;;;;;;3.63;60.09;99906.70;117398;1185;23456;-54
2022/01/15 01:48:15;;;;;;;3.70;0.50;;;;;;;3.62;60.02;99902.70;117425;1186;22608;-55
2022/01/15 01:50:44;;;;;;;0.90;0.30;;;;;;;3.61;60.17;99902.17;117400;1183;23461;-65
2022/01/15 01:53:12;;;;;;;2.10;0.50;;;;;;;3.60;60.15;99905.63;117389;1182;21854;-65
2022/01/15 01:55:40;;;;;;;1.10;0.40;;;;;;;3.58;60.04;99908.21;117442;1185;21864;-65
2022/01/15 01:58:09;;;;;;;2.70;0.50;;;;;;;3.55;60.05;99903.33;117368;1182;22994;-65
2022/01/15 02:00:37;;;;;;;0.90;0.50;;;;;;;3.51;59.93;99908.16;117429;1186;24711;-55
2022/01/15 02:03:06;;;;;;;2.00;0.40;;;;;;;3.47;60.00;99912.46;117465;1182;22619;-66
2022/01/15 02:05:34;;;;;;;2.10;0.50;;;;;;;3.45;59.99;99914.88;117481;1185;23441;-54
2022/01/15 02:08:03;;;;;;;2.70;0.60;;;;;;;3.46;60.09;99922.70;117337;1182;21851;-65
2022/01/15 02:10:31;;;;;;;1.20;0.30;;;;;;;3.48;60.10;99921.15;117448;1182;23738;-65
2022/01/15 02:13:18;;;;;;;2.60;0.40;;;;;;;3.46;60.00;99923.55;117381;1182;23550;-65
2022/01/15 02:15:47;;;;;;;3.10;0.80;;;;;;;3.45;60.10;99929.80;117341;1185;22915;-65
2022/01/15 02:18:15;;;;;;;2.90;0.50;;;;;;;3.44;59.95;99937.77;117417;1182;23583;-56
2022/01/15 02:23:34;;;;;;;2.20;0.70;;;;;;;3.40;59.99;99942.92;117392;1182;22661;-54
2022/01/15 02:26:04;;;;;;;1.80;0.50;;;;;;;3.37;59.82;99944.80;117414;1182;23448;-55
2022/01/15 02:28:41;;;;;;;1.40;0.50;;;;;;;3.35;59.86;99949.64;117418;1185;21963;-66
2022/01/15 02:31:10;;;;;;;1.50;0.30;;;;;;;3.34;59.87;99957.09;117362;1185;21894;-66
2022/01/15 02:33:39;;;;;;;1.50;0.40;;;;;;;3.33;60.03;99963.65;117354;1185;21959;-55
2022/01/15 02:36:15;;;;;;;1.10;0.50;;;;;;;3.31;59.89;99959.13;117424;1182;22960;-66
2022/01/15 02:38:43;;;;;;;1.40;0.40;;;;;;;3.28;59.98;99964.66;117365;1183;23454;-66
2022/01/15 02:41:11;;;;;;;0.90;0.40;;;;;;;3.26;59.96;99968.81;117475;1182;22618;-66
2022/01/15 02:43:39;;;;;;;1.10;0.40;;;;;;;3.25;60.03;99971.58;117405;1182;22914;-55
2022/01/15 02:46:19;;;;;;;3.10;0.50;;;;;;;3.24;59.94;99969.83;117443;1183;21847;-65
2022/01/15 02:48:52;;;;;;;3.30;0.70;;;;;;;3.23;59.87;99973.80;117405;1186;21992;-65
2022/01/15 02:51:22;;;;;;;1.90;0.60;;;;;;;3.22;59.92;99976.39;117340;1185;22915;-66
2022/01/15 02:53:54;;;;;;;2.20;0.50;;;;;;;3.19;59.90;99981.73;117345;1185;21864;-55
2022/01/15 02:56:36;;;;;;;2.10;0.30;;;;;;;3.16;59.88;99988.98;117435;1185;23573;-55
2022/01/15 02:59:06;;;;;;;2.00;0.40;;;;;;;3.11;59.81;99990.48;117446;1183;21882;-56
2022/01/15 03:01:34;;;;;;;2.00;0.60;;;;;;;3.07;59.81;99995.46;117368;1186;21934;-55
2022/01/15 03:04:03;;;;;;;1.90;0.50;;;;;;;3.05;59.84;99992.15;117398;1182;21858;-65
2022/01/15 03:06:34;;;;;;;2.60;0.60;;;;;;;3.03;59.84;99996.45;117377;1185;21851;-66
2022/01/15 03:09:02;;;;;;;1.90;0.50;;;;;;;3.01;59.92;99990.71;117235;1185;21894;-55
2022/01/15 03:11:50;;;;;;;3.60;0.60;;;;;;;3.01;59.88;100000.08;117349;1185;21865;-55
2022/01/15 03:14:20;;;;;;;3.60;0.70;;;;;;;3.00;59.73;99994.34;117323;1183;21865;-55
2022/01/15 03:16:48;;;;;;;3.10;0.70;;;;;;;2.98;59.99;99999.69;117396;1186;23576;-66
2022/01/15 03:19:36;;;;;;;2.60;0.70;;;;;;;2.95;59.91;100008.66;117399;1186;23452;-65
2022/01/15 03:22:05;;;;;;;2.10;0.40;;;;;;;2.94;59.89;100002.76;117335;1185;23435;-65
2022/01/15 03:24:33;;;;;;;2.60;0.70;;;;;;;2.94;59.72;100003.10;117462;1184;23445;-55
2022/01/15 03:27:03;;;;;;;2.30;0.70;;;;;;;2.95;59.95;100004.49;117448;1182;22070;-55
2022/01/15 03:29:31;;;;;;;1.30;0.40;;;;;;;2.94;60.00;100009.68;117353;1186;21886;-64
2022/01/15 03:31:59;;;;;;;3.00;0.70;;;;;;;2.94;59.91;100009.86;117365;1183;23455;-55
2022/01/15 03:34:28;;;;;;;4.50;0.70;;;;;;;2.94;60.02;100018.34;117346;1185;21863;-55
2022/01/15 03:36:56;;;;;;;2.00;0.60;;;;;;;2.93;60.05;100018.34;117423;1182;21827;-55
2022/01/15 03:39:24;;;;;;;2.90;0.50;;;;;;;2.91;59.98;100019.16;117430;1183;22924;-55
2022/01/15 03:41:53;;;;;;;3.80;0.80;;;;;;;2.90;59.92;100019.34;117377;1185;23475;-66
2022/01/15 03:44:21;;;;;;;3.20;1.10;;;;;;;2.89;59.94;100022.27;117372;1185;23360;-66
2022/01/15 03:46:49;;;;;;;2.70;0.70;;;;;;;2.89;59.87;100024.52;117401;1185;23563;-65
2022/01/15 03:49:17;;;;;;;3.60;0.80;;;;;;;2.88;59.83;100023.82;117419;1185;23075;-54
2022/01/15 03:51:46;;;;;;;2.30;0.70;;;;;;;2.83;59.85;100026.18;117381;1185;21860;-54
2022/01/15 03:54:14;;;;;;;3.60;0.60;;;;;;;2.79;59.99;100026.65;117441;1185;21852;-66
2022/01/15 03:56:42;;;;;;;2.50;0.70;;;;;;;2.80;60.04;100028.23;117417;1186;23448;-54
2022/01/15 03:59:10;;;;;;;4.60;1.20;;;;;;;2.81;59.88;100032.92;117336;1185;21840;-55
2022/01/15 04:01:38;;;;;;;1.80;0.50;;;;;;;2.81;59.84;100039.33;117351;1185;23532;-65
2022/01/15 04:04:07;;;;;;;2.80;0.50;;;;;;;2.80;59.88;100036.19;117395;1185;23631;-66
2022/01/15 04:06:35;;;;;;;2.50;0.60;;;;;;;2.81;59.92;100040.89;117382;1186;23472;-66
2022/01/15 04:09:04;;;;;;;3.00;1.00;;;;;;;2.82;59.80;100046.10;117397;1185;21892;-55
2022/01/15 04:11:32;;;;;;;4.20;0.80;;;;;;;2.81;59.92;100039.86;117389;1185;22996;-65
2022/01/15 04:14:01;;;;;;;2.60;0.80;;;;;;;2.81;59.81;100040.20;117462;1183;21826;-66
2022/01/15 04:16:30;;;;;;;2.40;0.50;;;;;;;2.81;59.91;100045.73;117390;1186;23697;-64
2022/01/15 04:18:58;;;;;;;3.10;0.70;;;;;;;2.80;59.88;100043.98;117470;1182;21852;-66
2022/01/15 04:21:27;;;;;;;2.80;0.60;;;;;;;2.79;59.80;100044.48;117433;1182;24710;-64
2022/01/15 04:23:55;;;;;;;3.30;0.50;;;;;;;2.81;59.87;100040.71;117401;1183;21852;-65
2022/01/15 04:26:25;;;;;;;3.30;0.70;;;;;;;2.81;59.81;100042.97;117369;1182;21850;-54
2022/01/15 04:28:54;;;;;;;5.40;0.90;;;;;;;2.80;59.76;100045.04;117348;1185;23565;-65
2022/01/15 04:31:22;;;;;;;3.90;0.80;;;;;;;2.79;59.84;100057.15;117377;1185;22912;-64
2022/01/15 04:33:50;;;;;;;2.80;0.70;;;;;;;2.79;59.92;100059.91;117428;1185;22935;-55
2022/01/15 04:36:19;;;;;;;4.30;0.90;;;;;;;2.80;59.78;100058.71;117517;1185;22362;-66
2022/01/15 04:38:47;;;;;;;4.70;0.90;;;;;;;2.80;59.86;100054.73;117392;1182;23011;-55
2022/01/15 04:41:16;;;;;;;3.10;0.50;;;;;;;2.80;59.99;100060.29;117378;1182;24158;-54
2022/01/15 04:43:44;;;;;;;4.40;0.80;;;;;;;2.82;59.91;100062.90;117435;1182;23922;-65
2022/01/15 04:46:12;;;;;;;3.30;0.70;;;;;;;2.81;59.92;100068.10;117362;1185;21830;-65
2022/01/15 04:48:40;;;;;;;3.10;0.70;;;;;;;2.80;59.82;100069.45;117316;1185;21858;-55
2022/01/15 04:51:08;;;;;;;3.30;0.80;;;;;;;2.77;59.84;100065.26;117334;1185;21895;-55
2022/01/15 04:53:37;;;;;;;4.90;0.80;;;;;;;2.75;59.77;100070.08;117402;1185;21836;-54
2022/01/15 04:56:05;;;;;;;2.20;0.80;;;;;;;2.74;59.89;100069.73;117451;1183;23445;-65
2022/01/15 04:58:33;;;;;;;2.20;0.60;;;;;;;2.74;59.69;100072.83;117405;1182;23567;-61
2022/01/15 05:01:01;;;;;;;3.40;0.60;;;;;;;2.75;59.75;100069.89;117350;1180;23112;-55
2022/01/15 05:03:30;;;;;;;3.10;0.80;;;;;;;2.74;59.77;100062.79;117422;1189;21860;-65
2022/01/15 05:05:58;;;;;;;4.20;0.80;;;;;;;2.73;59.79;100063.45;117442;1176;21937;-66
2022/01/15 05:08:26;;;;;;;3.50;0.80;;;;;;;2.70;59.97;100058.55;117400;1186;23465;-65
2022/01/15 05:10:58;;;;;;;2.30;0.70;;;;;;;2.67;59.95;100063.90;117505;1186;21967;-65
2022/01/15 05:13:30;;;;;;;4.30;0.80;;;;;;;2.65;59.83;100070.46;117412;1176;22936;-55
2022/01/15 05:15:58;;;;;;;5.70;1.40;;;;;;;2.67;59.75;100079.14;117435;1186;21895;-54
2022/01/15 05:18:27;;;;;;;2.40;0.60;;;;;;;2.62;59.70;100082.88;117410;1182;21862;-55
2022/01/15 05:20:57;;;;;;;4.30;1.00;;;;;;;2.59;59.76;100084.92;117483;1182;21851;-55
2022/01/15 05:23:25;;;;;;;6.80;1.40;;;;;;;2.57;59.70;100088.17;117454;1185;22642;-60
2022/01/15 05:25:53;;;;;;;3.60;0.90;;;;;;;2.51;59.72;100087.20;117386;1185;21878;-66
2022/01/15 05:28:21;;;;;;;2.10;0.50;;;;;;;2.46;59.78;100095.79;117427;1180;23475;-67
2022/01/15 05:30:49;;;;;;;2.10;0.70;;;;;;;2.44;59.99;100099.05;117371;1182;21854;-55
2022/01/15 05:33:17;;;;;;;2.50;0.60;;;;;;;2.43;59.78;100093.85;117412;1182;21858;-54
2022/01/15 05:35:45;;;;;;;6.80;1.10;;;;;;;2.45;59.78;100096.12;117402;1182;24148;-54
2022/01/15 05:38:14;;;;;;;6.20;1.60;;;;;;;2.47;59.87;100094.08;117384;1185;21863;-55
2022/01/15 05:40:43;;;;;;;4.00;0.70;;;;;;;2.47;59.85;100094.59;117425;1182;21830;-66
2022/01/15 05:43:12;;;;;;;4.40;1.10;;;;;;;2.49;59.78;100096.02;117376;1182;21854;-65
2022/01/15 05:45:40;;;;;;;4.80;1.10;;;;;;;2.49;59.72;100095.84;117332;1185;21963;-61
2022/01/15 05:48:08;;;;;;;1.40;0.60;;;;;;;2.47;59.55;100090.79;117450;1182;23471;-55
2022/01/15 05:50:37;;;;;;;5.80;1.30;;;;;;;2.48;59.68;100094.61;117370;1185;21854;-55
2022/01/15 05:53:05;;;;;;;5.20;1.10;;;;;;;2.49;59.79;100094.98;117399;1185;21863;-55
2022/01/15 05:55:33;;;;;;;4.90;1.30;;;;;;;2.52;59.92;100101.80;117390;1182;22535;-55
2022/01/15 05:58:02;;;;;;;2.40;0.70;;;;;;;2.58;59.90;100104.30;117378;1186;22942;-55
2022/01/15 06:00:31;;;;;;;3.50;0.90;;;;;;;2.60;59.94;100112.83;117356;1184;21851;-54
2022/01/15 06:02:59;;;;;;;4.70;1.00;;;;;;;2.61;59.88;100110.42;117418;1185;22017;-54
2022/01/15 06:05:27;;;;;;;7.00;1.00;;;;;;;2.71;59.86;100111.95;117405;1184;23469;-66
2022/01/15 06:07:56;;;;;;;2.70;1.00;;;;;;;2.76;60.01;100125.38;117374;1185;22806;-56
2022/01/15 06:10:24;;;;;;;5.70;1.20;;;;;;;2.83;59.96;100128.26;117416;1185;22002;-55
2022/01/15 06:12:52;;;;;;;3.40;1.00;;;;;;;2.90;60.23;100133.20;117361;1183;21845;-55
2022/01/15 06:15:20;;;;;;;4.30;0.90;;;;;;;3.01;59.85;100140.46;117398;1185;21836;-65
2022/01/15 06:17:49;;;;;;;5.80;1.20;;;;;;;3.07;60.20;100142.84;117392;1185;23448;-58
2022/01/15 06:20:17;;;;;;;3.00;0.90;;;;;;;3.16;60.06;100143.11;117408;1182;21883;-65
2022/01/15 06:22:47;;;;;;;4.20;1.40;;;;;;;3.23;60.11;100147.02;117418;1185;23490;-65
2022/01/15 06:25:16;;;;;;;4.50;1.40;;;;;;;3.30;60.15;100150.07;117405;1185;22959;-65
2022/01/15 06:27:44;;;;;;;4.60;1.10;;;;;;;3.36;60.22;100148.95;117337;1182;23451;-65
2022/01/15 06:30:12;;;;;;;3.80;0.90;;;;;;;3.45;60.21;100155.65;117404;1182;21854;-54
2022/01/15 06:32:43;;;;;;;3.00;0.70;;;;;;;3.51;60.30;100159.55;118726;1185;21850;-54
2022/01/15 06:35:13;;;;;;;4.10;1.10;;;;;;;3.61;60.15;100166.43;118340;1185;23438;-55
2022/01/15 06:37:41;;;;;;;3.80;1.00;;;;;;;3.63;60.32;100162.47;117384;1185;23471;-65
2022/01/15 06:40:09;;;;;;;5.30;1.00;;;;;;;3.67;60.25;100163.92;117319;1182;22635;-66
2022/01/15 06:42:37;;;;;;;5.00;1.20;;;;;;;3.74;60.03;100174.42;117558;1183;21844;-53
2022/01/15 06:45:06;;;;;;;4.10;1.30;;;;;;;3.81;60.10;100174.48;117390;1182;21870;-64
2022/01/15 06:47:34;;;;;;;2.90;0.80;;;;;;;3.85;59.97;100175.23;117421;1185;22943;-65
2022/01/15 06:50:05;;;;;;;6.20;1.20;;;;;;;3.90;60.24;100184.32;117376;1182;22417;-55
2022/01/15 06:52:36;;;;;;;;;;;;;;;3.95;60.34;100183.69;117349;1182;23557;-54
2022/01/15 06:55:05;;;;;;;2.20;0.80;;;;;;;4.03;60.21;100184.98;117380;1182;24145;-55
2022/01/15 06:57:34;;;;;;;4.40;0.90;;;;;;;4.05;60.24;100194.55;117355;1185;21864;-65
2022/01/15 07:00:05;;;;;;;3.70;1.10;;;;;;;4.05;60.47;100198.90;117443;1185;21854;-55
2022/01/15 07:02:33;;;;;;;3.10;0.90;;;;;;;4.04;59.87;100203.05;117419;1186;21852;-53
2022/01/15 07:05:03;;;;;;;6.50;1.40;;;;;;;4.02;60.05;100204.23;117371;1185;23542;-64
2022/01/15 07:07:33;;;;;;;3.80;1.30;;;;;;;3.97;59.99;100198.82;117353;1185;22922;-64
2022/01/15 07:10:01;;;;;;;4.20;1.10;;;;;;;3.98;60.19;100205.08;117416;1182;21845;-64
2022/01/15 07:12:30;;;;;;;4.50;1.00;;;;;;;4.04;60.45;100213.12;117409;1185;24145;-55
2022/01/15 07:14:59;;;;;;;4.40;1.60;;;;;;;4.11;60.31;100216.16;117432;1182;23554;-66
2022/01/15 07:17:28;;;;;;;2.60;0.80;;;;;;;4.15;60.25;100221.06;117422;1183;22090;-55
2022/01/15 07:19:56;;;;;;;2.90;0.90;;;;;;;4.16;60.20;100211.89;117296;1185;23452;-64
2022/01/15 07:22:24;;;;;;;2.70;0.80;;;;;;;4.15;60.08;100216.40;117350;1182;24270;-54
2022/01/15 07:24:52;;;;;;;4.90;1.50;;;;;;;4.14;60.12;100228.36;117395;1183;23566;-54
2022/01/15 07:27:21;;;;;;;2.30;0.70;;;;;;;4.15;60.19;100225.42;117397;1186;23687;-55
2022/01/15 07:29:54;;;;;;;6.70;1.40;;;;;;;4.17;60.25;100235.51;117383;1185;23500;-55
2022/01/15 07:32:22;;;;;;;4.50;1.00;;;;;;;4.23;60.40;100231.73;117415;1180;23458;-55
2022/01/15 07:34:52;;;;;;;3.80;1.00;;;;;;;4.34;60.11;100235.34;117404;1186;23529;-55
2022/01/15 07:37:20;;;;;;;4.00;1.00;;;;;;;4.45;60.51;100238.06;117476;1185;23446;-55
2022/01/15 07:39:48;;;;;;;5.00;0.90;;;;;;;4.62;60.55;100235.64;117412;1176;22329;-65
2022/01/15 07:42:17;;;;;;;5.20;1.00;;;;;;;4.81;60.74;100243.11;117389;1185;21862;-54
2022/01/15 07:44:46;;;;;;;4.70;1.60;;;;;;;4.89;60.59;100244.22;117443;1186;23759;-55
2022/01/15 07:47:14;;;;;;;3.00;0.90;;;;;;;4.91;60.29;100247.55;117434;1185;23558;-65
2022/01/15 07:49:42;;;;;;;6.20;1.20;;;;;;;4.91;60.10;100252.77;117369;1182;21846;-64
2022/01/15 07:52:11;;;;;;;4.20;1.00;;;;;;;4.91;59.85;100256.05;119472;1185;21775;-65
2022/01/15 07:54:39;;;;;;;7.70;1.10;;;;;;;4.94;60.24;100268.44;117489;1182;22664;-66
2022/01/15 07:57:08;;;;;;;5.30;1.10;;;;;;;4.98;60.31;100265.34;117415;1182;23363;-55
2022/01/15 07:59:36;;;;;;;3.70;1.00;;;;;;;5.04;60.04;100265.91;117349;1182;23554;-55
2022/01/15 08:02:04;;;;;;;5.00;1.40;;;;;;;5.11;60.36;100269.27;117365;1185;23876;-65
2022/01/15 08:04:34;;;;;;;4.10;0.90;;;;;;;5.16;60.11;100268.11;117349;1185;23624;-54
2022/01/15 08:07:16;;;;;;;5.70;1.50;;;;;;;5.20;60.19;100269.34;117324;1182;23478;-65
2022/01/15 08:09:45;;;;;;;3.10;0.90;;;;;;;5.24;60.12;100269.55;117368;1182;21855;-65
2022/01/15 08:12:13;;;;;;;4.90;1.10;;;;;;;5.27;60.24;100276.20;117390;1185;22619;-66
2022/01/15 08:14:41;;;;;;;4.90;1.10;;;;;;;5.35;60.28;100277.46;117429;1183;22288;-55
2022/01/15 08:17:09;;;;;;;5.10;1.30;;;;;;;5.44;60.13;100275.63;117306;1185;23583;-56
2022/01/15 08:19:38;;;;;;;3.00;0.90;;;;;;;5.51;60.24;100276.70;117406;1183;23584;-65
2022/01/15 08:22:06;;;;;;;3.40;0.90;;;;;;;5.53;60.32;100274.80;117392;1182;23686;-54
2022/01/15 08:24:34;;;;;;;2.60;0.80;;;;;;;5.53;60.50;100284.38;117356;1182;23566;-65
2022/01/15 08:27:03;;;;;;;7.10;1.20;;;;;;;5.54;60.06;100277.77;117447;1186;21978;-68
2022/01/15 08:29:33;;;;;;;6.30;1.20;;;;;;;5.57;60.34;100273.79;117378;1185;21866;-64
2022/01/15 08:32:02;;;;;;;5.80;1.00;;;;;;;5.61;60.14;100275.90;117494;1182;23471;-65
2022/01/15 08:34:30;;;;;;;3.50;1.30;;;;;;;5.65;60.35;100278.54;117377;1176;21864;-67
2022/01/15 08:36:58;;;;;;;2.90;1.00;;;;;;;5.69;59.98;100279.27;117389;1183;23038;-65
2022/01/15 08:39:27;;;;;;;3.40;1.10;;;;;;;5.71;60.11;100286.59;117374;1185;21857;-56
2022/01/15 08:41:56;;;;;;;3.70;1.10;;;;;;;5.75;60.45;100288.52;117345;1186;23545;-67
2022/01/15 08:44:25;;;;;;;4.70;1.00;;;;;;;5.83;60.22;100284.91;117429;1182;21855;-65
2022/01/15 08:46:54;;;;;;;5.80;1.00;;;;;;;6.01;60.38;100287.28;117427;1183;22924;-51
2022/01/15 08:49:22;;;;;;;4.30;1.20;;;;;;;6.11;60.46;100284.40;117426;1183;24161;-55
2022/01/15 08:51:50;;;;;;;7.70;1.20;;;;;;;6.16;60.42;100283.55;117410;1185;23493;-65
2022/01/15 08:54:18;;;;;;;4.70;1.30;;;;;;;6.15;60.10;100288.77;117283;1183;23577;-56
2022/01/15 08:56:47;;;;;;;5.40;1.40;;;;;;;6.11;60.05;100291.02;117353;1184;23557;-55
2022/01/15 08:59:15;;;;;;;4.20;0.80;;;;;;;6.08;60.00;100295.70;117330;1180;21858;-66
2022/01/15 09:01:43;;;;;;;13.60;5.30;;;;;;;6.14;60.23;100293.63;117372;1182;21943;-64
2022/01/15 09:04:12;;;;;;;5.20;1.40;;;;;;;6.28;60.05;100295.45;117317;1185;22916;-54
2022/01/15 09:06:40;;;;;;;3.90;1.10;;;;;;;6.36;60.25;100296.52;117310;1186;21884;-55
2022/01/15 09:09:09;;;;;;;4.60;1.40;;;;;;;6.46;60.22;100300.56;117395;1185;23512;-65
2022/01/15 09:11:37;;;;;;;6.40;2.00;;;;;;;6.54;60.22;100300.41;117349;1183;21969;-65
2022/01/15 09:14:06;;;;;;;5.60;1.80;;;;;;;6.57;60.02;100298.69;117381;1185;21900;-55
2022/01/15 09:16:34;;;;;;;4.20;1.40;;;;;;;6.60;59.88;100307.23;117342;1183;23699;-55
2022/01/15 09:19:02;;;;;;;8.10;1.40;;;;;;;6.56;60.11;100311.05;119487;1184;21788;-63
2022/01/15 09:21:30;;;;;;;3.30;0.80;;;;;;;6.57;60.26;100315.06;117866;1183;21862;-56
2022/01/15 09:23:59;;;;;;;4.00;1.40;;;;;;;6.52;59.92;100315.74;117412;1182;21901;-55
2022/01/15 09:26:47;;;;;;;4.40;1.10;;;;;;;6.48;60.21;100316.94;117425;1182;23689;-65
2022/01/15 09:32:04;;;;;;;3.10;1.00;;;;;;;6.37;59.77;100319.70;117461;1182;23627;-65
2022/01/15 09:34:35;;;;;;;4.70;1.80;;;;;;;6.36;59.72;100314.13;117387;1186;21936;-55
2022/01/15 09:37:04;;;;;;;5.90;1.70;;;;;;;6.35;59.88;100320.05;117400;1184;22668;-65
2022/01/15 09:39:33;;;;;;;6.10;1.60;;;;;;;6.36;59.85;100319.52;117377;1185;21861;-56
2022/01/15 09:42:02;;;;;;;3.40;1.00;;;;;;;6.45;59.88;100316.25;117401;1183;21837;-65
2022/01/15 09:44:31;;;;;;;7.00;1.40;;;;;;;6.51;59.85;100322.72;117379;1185;23612;-56
2022/01/15 09:47:01;;;;;;;7.20;1.50;;;;;;;6.53;59.79;100322.20;117374;1185;21863;-64
2022/01/15 09:49:29;;;;;;;6.60;1.20;;;;;;;6.56;59.39;100334.42;117425;1182;23723;-66
2022/01/15 09:51:58;;;;;;;3.70;0.90;;;;;;;6.57;59.41;100329.36;117269;1185;21848;-55
2022/01/15 09:54:26;;;;;;;4.20;1.30;;;;;;;6.58;59.63;100327.97;117392;1185;22638;-65
2022/01/15 09:56:56;;;;;;;6.10;1.40;;;;;;;6.59;59.64;100334.95;117342;1185;24807;-65
2022/01/15 09:59:24;;;;;;;4.20;1.00;;;;;;;6.57;59.64;100329.02;117440;1186;22928;-66
2022/01/15 10:01:53;;;;;;;3.70;1.10;;;;;;;6.53;59.60;100330.75;117354;1185;21880;-56
2022/01/15 10:04:21;;;;;;;5.70;1.60;;;;;;;6.54;59.47;100330.76;117364;1185;23600;-56
2022/01/15 10:07:06;;;;;;;8.10;1.50;;;;;;;6.54;59.35;100330.75;117417;1182;21853;-56
2022/01/15 10:09:35;;;;;;;3.50;1.20;;;;;;;6.55;60.03;100330.39;117428;1182;23245;-65
2022/01/15 10:12:04;;;;;;;3.20;0.90;;;;;;;6.57;59.80;100333.90;117376;1182;24212;-56
2022/01/15 10:14:37;;;;;;;4.30;1.40;;;;;;;6.60;59.83;100325.71;117412;1185;22158;-56
2022/01/15 10:17:27;;;;;;;4.90;1.20;;;;;;;6.52;59.64;100328.82;117413;1186;21864;-55
2022/01/15 10:19:57;;;;;;;3.00;1.40;;;;;;;6.46;59.66;100333.33;117448;1186;22988;-56
2022/01/15 10:22:27;;;;;;;4.60;1.40;;;;;;;6.43;60.04;100332.96;117421;1185;22619;-56
2022/01/15 10:24:56;;;;;;;5.80;1.50;;;;;;;6.43;59.67;100334.02;117416;1183;21854;-68
2022/01/15 10:27:27;;;;;;;5.00;1.40;;;;;;;6.42;59.81;100333.83;117426;1183;21847;-56
2022/01/15 10:30:07;;;;;;;5.90;1.30;;;;;;;6.41;59.85;100333.65;117332;1185;22172;-55
2022/01/15 10:32:37;;;;;;;;;;;;;;;6.41;59.64;100330.52;117312;1185;21838;-55
2022/01/15 10:35:09;;;;;;;4.20;1.10;;;;;;;6.43;59.73;100331.56;117348;1185;22271;-66
2022/01/15 10:37:55;;;;;;;5.10;1.00;;;;;;;6.45;59.76;100333.14;117362;1183;24704;-66
2022/01/15 10:40:25;;;;;;;4.00;1.20;;;;;;;6.46;59.86;100337.34;117418;1185;22988;-66
2022/01/15 10:42:58;;;;;;;7.70;1.90;;;;;;;6.48;59.43;100335.08;117372;1185;21898;-66
2022/01/15 10:45:29;;;;;;;5.40;1.30;;;;;;;6.52;59.70;100331.77;117350;1185;22922;-56
2022/01/15 10:48:01;;;;;;;4.00;1.20;;;;;;;6.54;59.69;100332.66;117198;1185;21943;-56
2022/01/15 10:50:37;;;;;;;5.20;1.20;;;;;;;6.57;59.45;100331.46;117362;1185;24171;-55
2022/01/15 10:53:07;;;;;;;4.50;1.30;;;;;;;6.67;59.79;100332.87;117349;1179;22125;-66
2022/01/15 10:55:36;;;;;;;3.80;1.30;;;;;;;6.81;59.69;100320.36;117361;1186;21854;-66
2022/01/15 10:58:11;;;;;;;5.60;1.20;;;;;;;6.87;59.27;100322.45;117355;1185;21856;-67
2022/01/15 11:00:41;;;;;;;6.10;1.50;;;;;;;6.94;59.55;100325.79;117360;1185;21852;-56
2022/01/15 11:03:11;;;;;;;5.60;1.50;;;;;;;6.94;59.35;100324.73;117394;1185;23703;-56
2022/01/15 11:05:42;;;;;;;4.30;1.70;;;;;;;6.96;59.59;100319.86;117340;1182;23672;-61
2022/01/15 11:08:27;;;;;;;3.50;1.30;;;;;;;6.96;59.53;100319.86;117356;1176;23449;-55
2022/01/15 11:11:01;;;;;;;4.00;1.20;;;;;;;7.08;59.88;100327.20;117364;1182;23448;-57
2022/01/15 11:13:37;;;;;;;6.10;1.40;;;;;;;7.16;59.99;100329.48;117377;1185;24455;-67
2022/01/15 11:16:08;;;;;;;4.50;1.30;;;;;;;7.22;59.69;100324.61;117316;1185;21859;-68
2022/01/15 11:18:37;;;;;;;9.40;1.70;;;;;;;7.27;59.70;100323.40;117410;1183;21857;-56
2022/01/15 11:21:11;;;;;;;5.40;1.80;;;;;;;7.31;59.62;100319.19;117507;1186;21871;-67
2022/01/15 11:23:40;;;;;;;4.60;1.80;;;;;;;7.37;59.82;100321.11;117367;1186;24161;-56
2022/01/15 11:26:18;;;;;;;3.90;1.20;;;;;;;7.46;59.43;100327.40;117393;1186;21855;-56
2022/01/15 11:28:47;;;;;;;5.20;1.40;;;;;;;7.54;59.31;100326.86;117352;1185;23474;-56
2022/01/15 11:31:20;;;;;;;4.40;1.10;;;;;;;7.52;58.91;100320.05;117427;1186;24159;-56
2022/01/15 11:33:53;;;;;;;4.40;1.10;;;;;;;7.47;58.48;100328.98;117417;1182;22924;-66
2022/01/15 11:36:38;;;;;;;4.20;1.20;;;;;;;7.48;58.59;100322.69;117408;1187;21899;-55
2022/01/15 11:39:11;;;;;;;6.10;1.50;;;;;;;7.47;58.48;100322.17;117418;1186;22171;-56
2022/01/15 11:41:43;;;;;;;5.00;1.40;;;;;;;7.44;58.60;100317.98;117403;1185;22708;-66
2022/01/15 11:44:12;;;;;;;8.20;4.00;;;;;;;7.45;58.71;100325.30;117474;1182;23566;-68
2022/01/15 11:46:44;;;;;;;4.90;2.40;;;;;;;7.43;58.58;100321.12;117414;1185;24175;-67
2022/01/15 11:49:35;;;;;;;4.70;1.50;;;;;;;7.40;58.96;100323.20;117353;1185;23469;-66
2022/01/15 11:52:08;;;;;;;;;;;;;;;7.37;58.42;100333.52;117427;1186;21974;-56
2022/01/15 11:54:37;;;;;;;3.20;1.20;;;;;;;7.34;58.14;100332.98;117404;1186;21918;-56
2022/01/15 11:57:23;;;;;;;4.00;1.50;;;;;;;7.32;58.53;100334.37;117473;1183;21855;-59
2022/01/15 11:59:55;;;;;;;2.80;1.20;;;;;;;7.33;58.64;100337.52;117379;1186;23554;-56